sensor_id;sensor_type;location;lat;lon;timestamp;P1;durP1;ratioP1;P2;durP2;ratioP2
8526;SDS011;4301;48.362;8.478;2022-09-13T00:02:20;2.37;;;2.27;;
8526;SDS011;4301;48.362;8.478;2022-09-13T00:04:47;3.23;;;2.80;;
8526;SDS011;4301;48.362;8.478;2022-09-13T00:07:15;2.87;;;2.67;;
8526;SDS011;4301;48.362;8.478;2022-09-13T00:09:42;2.70;;;2.50;;
8526;SDS011;4301;48.362;8.478;2022-09-13T00:12:10;2.73;;;2.53;;
8526;SDS011;4301;48.362;8.478;2022-09-13T00:14:38;2.80;;;2.60;;
8526;SDS011;4301;48.362;8.478;2022-09-13T00:17:05;5.23;;;2.67;;
8526;SDS011;4301;48.362;8.478;2022-09-13T00:19:32;4.17;;;2.40;;
8526;SDS011;4301;48.362;8.478;2022-09-13T00:21:59;2.80;;;2.50;;
8526;SDS011;4301;48.362;8.478;2022-09-13T00:24:26;2.83;;;2.60;;
8526;SDS011;4301;48.362;8.478;2022-09-13T00:26:53;3.27;;;2.77;;
8526;SDS011;4301;48.362;8.478;2022-09-13T00:29:22;2.90;;;2.70;;
8526;SDS011;4301;48.362;8.478;2022-09-13T00:31:49;2.70;;;2.30;;
8526;SDS011;4301;48.362;8.478;2022-09-13T00:34:16;2.87;;;2.53;;
8526;SDS011;4301;48.362;8.478;2022-09-13T00:36:43;3.77;;;2.50;;
8526;SDS011;4301;48.362;8.478;2022-09-13T00:39:11;2.70;;;2.50;;
8526;SDS011;4301;48.362;8.478;2022-09-13T00:41:38;2.83;;;2.63;;
8526;SDS011;4301;48.362;8.478;2022-09-13T00:47:07;4.50;;;2.60;;
8526;SDS011;4301;48.362;8.478;2022-09-13T00:49:34;2.90;;;2.70;;
8526;SDS011;4301;48.362;8.478;2022-09-13T00:52:04;2.93;;;2.60;;
8526;SDS011;4301;48.362;8.478;2022-09-13T00:54:38;2.97;;;2.60;;
8526;SDS011;4301;48.362;8.478;2022-09-13T00:57:09;3.13;;;2.67;;
8526;SDS011;4301;48.362;8.478;2022-09-13T00:59:40;4.03;;;2.97;;
8526;SDS011;4301;48.362;8.478;2022-09-13T01:02:13;3.67;;;2.30;;
8526;SDS011;4301;48.362;8.478;2022-09-13T01:04:40;2.90;;;2.70;;
8526;SDS011;4301;48.362;8.478;2022-09-13T01:07:10;2.67;;;2.43;;
8526;SDS011;4301;48.362;8.478;2022-09-13T01:09:40;2.73;;;2.57;;
8526;SDS011;4301;48.362;8.478;2022-09-13T01:12:12;7.00;;;2.73;;
8526;SDS011;4301;48.362;8.478;2022-09-13T01:14:47;2.90;;;2.70;;
8526;SDS011;4301;48.362;8.478;2022-09-13T01:17:18;2.80;;;2.60;;
8526;SDS011;4301;48.362;8.478;2022-09-13T01:19:45;5.70;;;3.00;;
8526;SDS011;4301;48.362;8.478;2022-09-13T01:22:26;3.57;;;2.83;;
8526;SDS011;4301;48.362;8.478;2022-09-13T01:25:24;3.10;;;2.90;;
8526;SDS011;4301;48.362;8.478;2022-09-13T01:31:10;2.83;;;2.63;;
8526;SDS011;4301;48.362;8.478;2022-09-13T01:33:47;3.80;;;3.10;;
8526;SDS011;4301;48.362;8.478;2022-09-13T01:36:28;3.37;;;3.07;;
8526;SDS011;4301;48.362;8.478;2022-09-13T01:39:07;3.00;;;2.80;;
8526;SDS011;4301;48.362;8.478;2022-09-13T01:44:39;3.17;;;2.97;;
8526;SDS011;4301;48.362;8.478;2022-09-13T01:47:23;2.97;;;2.77;;
8526;SDS011;4301;48.362;8.478;2022-09-13T01:49:57;3.63;;;2.73;;
8526;SDS011;4301;48.362;8.478;2022-09-13T01:52:39;3.00;;;2.80;;
8526;SDS011;4301;48.362;8.478;2022-09-13T01:55:12;3.50;;;3.20;;
8526;SDS011;4301;48.362;8.478;2022-09-13T01:57:51;3.43;;;2.97;;
8526;SDS011;4301;48.362;8.478;2022-09-13T02:00:22;2.70;;;2.60;;
8526;SDS011;4301;48.362;8.478;2022-09-13T02:02:51;3.63;;;3.30;;
8526;SDS011;4301;48.362;8.478;2022-09-13T02:05:30;3.30;;;3.10;;
8526;SDS011;4301;48.362;8.478;2022-09-13T02:08:02;3.40;;;3.10;;
8526;SDS011;4301;48.362;8.478;2022-09-13T02:10:34;3.03;;;2.80;;
8526;SDS011;4301;48.362;8.478;2022-09-13T02:13:09;3.30;;;3.00;;
8526;SDS011;4301;48.362;8.478;2022-09-13T02:15:42;5.03;;;3.13;;
8526;SDS011;4301;48.362;8.478;2022-09-13T02:18:15;3.30;;;3.00;;
8526;SDS011;4301;48.362;8.478;2022-09-13T02:20:46;3.43;;;3.23;;
8526;SDS011;4301;48.362;8.478;2022-09-13T02:23:16;3.30;;;3.10;;
8526;SDS011;4301;48.362;8.478;2022-09-13T02:25:49;3.67;;;3.37;;
8526;SDS011;4301;48.362;8.478;2022-09-13T02:28:20;5.13;;;3.00;;
8526;SDS011;4301;48.362;8.478;2022-09-13T02:30:51;3.43;;;3.10;;
8526;SDS011;4301;48.362;8.478;2022-09-13T02:33:22;4.07;;;2.90;;
8526;SDS011;4301;48.362;8.478;2022-09-13T02:35:53;2.90;;;2.70;;
8526;SDS011;4301;48.362;8.478;2022-09-13T02:38:24;4.30;;;2.97;;
8526;SDS011;4301;48.362;8.478;2022-09-13T02:40:56;3.10;;;2.90;;
8526;SDS011;4301;48.362;8.478;2022-09-13T02:43:26;3.80;;;2.77;;
8526;SDS011;4301;48.362;8.478;2022-09-13T02:46:04;3.23;;;2.97;;
8526;SDS011;4301;48.362;8.478;2022-09-13T02:48:44;3.17;;;2.97;;
8526;SDS011;4301;48.362;8.478;2022-09-13T02:51:24;3.03;;;2.73;;
8526;SDS011;4301;48.362;8.478;2022-09-13T02:53:59;2.97;;;2.70;;
8526;SDS011;4301;48.362;8.478;2022-09-13T02:56:36;3.63;;;3.10;;
8526;SDS011;4301;48.362;8.478;2022-09-13T02:59:14;4.53;;;3.10;;
8526;SDS011;4301;48.362;8.478;2022-09-13T03:01:43;5.90;;;3.17;;
8526;SDS011;4301;48.362;8.478;2022-09-13T03:04:15;4.77;;;2.83;;
8526;SDS011;4301;48.362;8.478;2022-09-13T03:06:42;3.33;;;2.80;;
8526;SDS011;4301;48.362;8.478;2022-09-13T03:09:09;3.10;;;2.90;;
8526;SDS011;4301;48.362;8.478;2022-09-13T03:11:43;2.80;;;2.60;;
8526;SDS011;4301;48.362;8.478;2022-09-13T03:14:36;2.87;;;2.67;;
8526;SDS011;4301;48.362;8.478;2022-09-13T03:17:14;3.10;;;2.90;;
8526;SDS011;4301;48.362;8.478;2022-09-13T03:20:02;3.00;;;2.80;;
8526;SDS011;4301;48.362;8.478;2022-09-13T03:22:43;3.20;;;2.93;;
8526;SDS011;4301;48.362;8.478;2022-09-13T03:25:30;4.23;;;3.03;;
8526;SDS011;4301;48.362;8.478;2022-09-13T03:28:11;2.87;;;2.70;;
8526;SDS011;4301;48.362;8.478;2022-09-13T03:30:50;3.30;;;3.00;;
8526;SDS011;4301;48.362;8.478;2022-09-13T03:33:23;3.17;;;2.90;;
8526;SDS011;4301;48.362;8.478;2022-09-13T03:35:58;4.90;;;3.20;;
8526;SDS011;4301;48.362;8.478;2022-09-13T03:38:32;5.03;;;2.93;;
8526;SDS011;4301;48.362;8.478;2022-09-13T03:41:06;3.23;;;2.93;;
8526;SDS011;4301;48.362;8.478;2022-09-13T03:43:37;4.77;;;3.50;;
8526;SDS011;4301;48.362;8.478;2022-09-13T03:46:11;3.67;;;3.33;;
8526;SDS011;4301;48.362;8.478;2022-09-13T03:48:42;3.23;;;2.93;;
8526;SDS011;4301;48.362;8.478;2022-09-13T03:51:11;3.30;;;3.10;;
8526;SDS011;4301;48.362;8.478;2022-09-13T03:53:41;3.50;;;3.20;;
8526;SDS011;4301;48.362;8.478;2022-09-13T03:56:11;4.30;;;3.00;;
8526;SDS011;4301;48.362;8.478;2022-09-13T03:58:39;3.20;;;3.00;;
8526;SDS011;4301;48.362;8.478;2022-09-13T04:01:06;3.40;;;3.10;;
8526;SDS011;4301;48.362;8.478;2022-09-13T04:03:34;3.00;;;2.80;;
8526;SDS011;4301;48.362;8.478;2022-09-13T04:06:01;3.47;;;3.17;;
8526;SDS011;4301;48.362;8.478;2022-09-13T04:08:31;3.47;;;2.90;;
8526;SDS011;4301;48.362;8.478;2022-09-13T04:10:58;3.30;;;3.10;;
8526;SDS011;4301;48.362;8.478;2022-09-13T04:13:26;3.10;;;2.90;;
8526;SDS011;4301;48.362;8.478;2022-09-13T04:15:53;3.30;;;3.00;;
8526;SDS011;4301;48.362;8.478;2022-09-13T04:18:21;3.27;;;3.07;;
8526;SDS011;4301;48.362;8.478;2022-09-13T04:20:54;3.17;;;2.97;;
8526;SDS011;4301;48.362;8.478;2022-09-13T04:23:23;3.37;;;3.17;;
8526;SDS011;4301;48.362;8.478;2022-09-13T04:25:53;3.33;;;3.10;;
8526;SDS011;4301;48.362;8.478;2022-09-13T04:28:21;3.13;;;2.93;;
8526;SDS011;4301;48.362;8.478;2022-09-13T04:30:48;3.50;;;3.30;;
8526;SDS011;4301;48.362;8.478;2022-09-13T04:33:15;3.60;;;3.40;;
8526;SDS011;4301;48.362;8.478;2022-09-13T04:35:42;3.67;;;3.40;;
8526;SDS011;4301;48.362;8.478;2022-09-13T04:38:09;3.80;;;3.50;;
8526;SDS011;4301;48.362;8.478;2022-09-13T04:40:37;3.57;;;3.37;;
8526;SDS011;4301;48.362;8.478;2022-09-13T04:43:06;4.40;;;3.43;;
8526;SDS011;4301;48.362;8.478;2022-09-13T04:45:33;3.57;;;3.30;;
8526;SDS011;4301;48.362;8.478;2022-09-13T04:48:00;3.73;;;3.33;;
8526;SDS011;4301;48.362;8.478;2022-09-13T04:50:28;3.37;;;3.17;;
8526;SDS011;4301;48.362;8.478;2022-09-13T04:52:55;7.33;;;3.30;;
8526;SDS011;4301;48.362;8.478;2022-09-13T04:55:22;3.87;;;3.50;;
8526;SDS011;4301;48.362;8.478;2022-09-13T04:57:52;3.63;;;3.20;;
8526;SDS011;4301;48.362;8.478;2022-09-13T05:00:22;3.60;;;3.30;;
8526;SDS011;4301;48.362;8.478;2022-09-13T05:02:53;3.73;;;3.30;;
8526;SDS011;4301;48.362;8.478;2022-09-13T05:05:23;3.30;;;3.10;;
8526;SDS011;4301;48.362;8.478;2022-09-13T05:07:52;3.57;;;3.27;;
8526;SDS011;4301;48.362;8.478;2022-09-13T05:10:20;3.57;;;3.37;;
8526;SDS011;4301;48.362;8.478;2022-09-13T05:12:47;3.93;;;3.50;;
8526;SDS011;4301;48.362;8.478;2022-09-13T05:15:14;3.63;;;3.33;;
8526;SDS011;4301;48.362;8.478;2022-09-13T05:17:43;3.50;;;3.13;;
8526;SDS011;4301;48.362;8.478;2022-09-13T05:20:10;3.80;;;3.50;;
8526;SDS011;4301;48.362;8.478;2022-09-13T05:22:37;3.37;;;3.07;;
8526;SDS011;4301;48.362;8.478;2022-09-13T05:25:05;3.30;;;3.10;;
8526;SDS011;4301;48.362;8.478;2022-09-13T05:27:33;3.30;;;3.00;;
8526;SDS011;4301;48.362;8.478;2022-09-13T05:30:00;3.87;;;3.63;;
8526;SDS011;4301;48.362;8.478;2022-09-13T05:32:27;5.30;;;3.53;;
8526;SDS011;4301;48.362;8.478;2022-09-13T05:34:58;4.30;;;3.13;;
8526;SDS011;4301;48.362;8.478;2022-09-13T05:37:25;3.60;;;3.40;;
8526;SDS011;4301;48.362;8.478;2022-09-13T05:39:52;3.80;;;3.30;;
8526;SDS011;4301;48.362;8.478;2022-09-13T05:42:19;3.50;;;3.20;;
8526;SDS011;4301;48.362;8.478;2022-09-13T05:44:46;3.57;;;3.23;;
8526;SDS011;4301;48.362;8.478;2022-09-13T05:47:14;3.50;;;3.30;;
8526;SDS011;4301;48.362;8.478;2022-09-13T05:49:41;4.30;;;4.00;;
8526;SDS011;4301;48.362;8.478;2022-09-13T05:52:10;3.53;;;3.27;;
8526;SDS011;4301;48.362;8.478;2022-09-13T05:54:38;4.03;;;3.63;;
8526;SDS011;4301;48.362;8.478;2022-09-13T05:57:05;6.07;;;3.80;;
8526;SDS011;4301;48.362;8.478;2022-09-13T05:59:32;3.67;;;3.33;;
8526;SDS011;4301;48.362;8.478;2022-09-13T06:01:59;5.13;;;3.40;;
8526;SDS011;4301;48.362;8.478;2022-09-13T06:04:27;6.17;;;3.43;;
8526;SDS011;4301;48.362;8.478;2022-09-13T06:06:54;3.63;;;3.30;;
8526;SDS011;4301;48.362;8.478;2022-09-13T06:09:23;4.70;;;3.43;;
8526;SDS011;4301;48.362;8.478;2022-09-13T06:11:50;3.60;;;3.30;;
8526;SDS011;4301;48.362;8.478;2022-09-13T06:14:17;3.90;;;3.33;;
8526;SDS011;4301;48.362;8.478;2022-09-13T06:16:44;4.53;;;3.00;;
8526;SDS011;4301;48.362;8.478;2022-09-13T06:19:11;3.50;;;3.20;;
8526;SDS011;4301;48.362;8.478;2022-09-13T06:21:38;5.00;;;3.50;;
8526;SDS011;4301;48.362;8.478;2022-09-13T06:24:06;4.63;;;3.30;;
8526;SDS011;4301;48.362;8.478;2022-09-13T06:26:34;6.10;;;3.37;;
8526;SDS011;4301;48.362;8.478;2022-09-13T06:29:02;3.50;;;3.20;;
8526;SDS011;4301;48.362;8.478;2022-09-13T06:31:29;3.20;;;3.00;;
8526;SDS011;4301;48.362;8.478;2022-09-13T06:33:57;4.90;;;3.63;;
8526;SDS011;4301;48.362;8.478;2022-09-13T06:36:26;4.30;;;3.63;;
8526;SDS011;4301;48.362;8.478;2022-09-13T06:38:53;4.23;;;3.10;;
8526;SDS011;4301;48.362;8.478;2022-09-13T06:41:21;7.63;;;3.33;;
8526;SDS011;4301;48.362;8.478;2022-09-13T06:43:55;3.40;;;3.10;;
8526;SDS011;4301;48.362;8.478;2022-09-13T06:46:24;3.00;;;2.80;;
8526;SDS011;4301;48.362;8.478;2022-09-13T06:48:52;6.60;;;3.33;;
8526;SDS011;4301;48.362;8.478;2022-09-13T06:51:22;3.27;;;3.00;;
8526;SDS011;4301;48.362;8.478;2022-09-13T06:53:51;3.30;;;3.10;;
8526;SDS011;4301;48.362;8.478;2022-09-13T06:56:21;5.60;;;2.87;;
8526;SDS011;4301;48.362;8.478;2022-09-13T06:58:50;2.87;;;2.67;;
8526;SDS011;4301;48.362;8.478;2022-09-13T07:01:22;3.37;;;2.97;;
8526;SDS011;4301;48.362;8.478;2022-09-13T07:03:52;3.03;;;2.83;;
8526;SDS011;4301;48.362;8.478;2022-09-13T07:06:22;2.87;;;2.50;;
8526;SDS011;4301;48.362;8.478;2022-09-13T07:08:51;4.90;;;2.50;;
8526;SDS011;4301;48.362;8.478;2022-09-13T07:11:20;3.07;;;2.60;;
8526;SDS011;4301;48.362;8.478;2022-09-13T07:13:50;4.27;;;2.20;;
8526;SDS011;4301;48.362;8.478;2022-09-13T07:16:18;2.47;;;2.37;;
8526;SDS011;4301;48.362;8.478;2022-09-13T07:18:51;2.37;;;2.23;;
8526;SDS011;4301;48.362;8.478;2022-09-13T07:21:19;5.23;;;2.60;;
8526;SDS011;4301;48.362;8.478;2022-09-13T07:23:47;4.63;;;2.50;;
8526;SDS011;4301;48.362;8.478;2022-09-13T07:26:15;6.00;;;2.57;;
8526;SDS011;4301;48.362;8.478;2022-09-13T07:28:42;3.93;;;2.43;;
8526;SDS011;4301;48.362;8.478;2022-09-13T07:37:52;2.10;;;2.00;;
8526;SDS011;4301;48.362;8.478;2022-09-13T07:40:19;3.63;;;1.90;;
8526;SDS011;4301;48.362;8.478;2022-09-13T07:42:46;2.30;;;2.00;;
8526;SDS011;4301;48.362;8.478;2022-09-13T07:45:13;2.53;;;1.97;;
8526;SDS011;4301;48.362;8.478;2022-09-13T07:47:41;3.93;;;2.17;;
8526;SDS011;4301;48.362;8.478;2022-09-13T07:50:09;3.17;;;2.10;;
8526;SDS011;4301;48.362;8.478;2022-09-13T07:52:36;2.50;;;2.30;;
8526;SDS011;4301;48.362;8.478;2022-09-13T07:55:06;3.37;;;2.27;;
8526;SDS011;4301;48.362;8.478;2022-09-13T07:57:33;3.27;;;2.10;;
8526;SDS011;4301;48.362;8.478;2022-09-13T08:00:01;4.30;;;2.27;;
8526;SDS011;4301;48.362;8.478;2022-09-13T08:02:29;4.50;;;2.40;;
8526;SDS011;4301;48.362;8.478;2022-09-13T08:04:57;3.43;;;2.20;;
8526;SDS011;4301;48.362;8.478;2022-09-13T08:07:25;5.70;;;2.77;;
8526;SDS011;4301;48.362;8.478;2022-09-13T08:09:52;2.50;;;2.30;;
8526;SDS011;4301;48.362;8.478;2022-09-13T08:12:22;2.37;;;2.00;;
8526;SDS011;4301;48.362;8.478;2022-09-13T08:14:49;5.70;;;2.47;;
8526;SDS011;4301;48.362;8.478;2022-09-13T08:17:16;2.60;;;1.92;;
8526;SDS011;4301;48.362;8.478;2022-09-13T08:19:43;4.63;;;1.85;;
8526;SDS011;4301;48.362;8.478;2022-09-13T08:22:10;2.70;;;2.30;;
8526;SDS011;4301;48.362;8.478;2022-09-13T08:24:38;2.38;;;1.70;;
8526;SDS011;4301;48.362;8.478;2022-09-13T08:27:05;3.85;;;1.80;;
8526;SDS011;4301;48.362;8.478;2022-09-13T08:29:33;2.50;;;1.58;;
8526;SDS011;4301;48.362;8.478;2022-09-13T08:32:00;2.10;;;1.48;;
8526;SDS011;4301;48.362;8.478;2022-09-13T08:34:28;1.60;;;1.50;;
8526;SDS011;4301;48.362;8.478;2022-09-13T08:36:56;1.58;;;1.40;;
8526;SDS011;4301;48.362;8.478;2022-09-13T08:39:23;1.60;;;1.50;;
8526;SDS011;4301;48.362;8.478;2022-09-13T08:44:56;2.13;;;1.48;;
8526;SDS011;4301;48.362;8.478;2022-09-13T08:47:30;2.78;;;1.10;;
8526;SDS011;4301;48.362;8.478;2022-09-13T08:50:12;2.95;;;1.30;;
8526;SDS011;4301;48.362;8.478;2022-09-13T08:55:43;1.45;;;1.40;;
8526;SDS011;4301;48.362;8.478;2022-09-13T08:58:24;2.88;;;1.50;;
8526;SDS011;4301;48.362;8.478;2022-09-13T09:01:04;2.20;;;1.30;;
8526;SDS011;4301;48.362;8.478;2022-09-13T09:03:36;1.40;;;1.30;;
8526;SDS011;4301;48.362;8.478;2022-09-13T09:06:11;3.15;;;1.23;;
8526;SDS011;4301;48.362;8.478;2022-09-13T09:08:42;1.55;;;1.20;;
8526;SDS011;4301;48.362;8.478;2022-09-13T09:11:16;1.23;;;1.23;;
8526;SDS011;4301;48.362;8.478;2022-09-13T09:13:53;3.65;;;1.40;;
8526;SDS011;4301;48.362;8.478;2022-09-13T09:16:29;1.42;;;1.30;;
8526;SDS011;4301;48.362;8.478;2022-09-13T09:19:04;1.40;;;1.30;;
8526;SDS011;4301;48.362;8.478;2022-09-13T09:21:39;1.35;;;1.20;;
8526;SDS011;4301;48.362;8.478;2022-09-13T09:24:08;4.25;;;1.20;;
8526;SDS011;4301;48.362;8.478;2022-09-13T09:26:44;2.13;;;1.20;;
8526;SDS011;4301;48.362;8.478;2022-09-13T09:29:14;1.95;;;1.50;;
8526;SDS011;4301;48.362;8.478;2022-09-13T09:31:47;2.65;;;1.40;;
8526;SDS011;4301;48.362;8.478;2022-09-13T09:34:26;1.20;;;1.20;;
8526;SDS011;4301;48.362;8.478;2022-09-13T09:37:07;1.10;;;1.10;;
8526;SDS011;4301;48.362;8.478;2022-09-13T09:39:39;2.25;;;1.30;;
8526;SDS011;4301;48.362;8.478;2022-09-13T09:42:08;4.25;;;1.80;;
8526;SDS011;4301;48.362;8.478;2022-09-13T09:44:39;1.38;;;1.25;;
8526;SDS011;4301;48.362;8.478;2022-09-13T09:47:12;1.40;;;1.30;;
8526;SDS011;4301;48.362;8.478;2022-09-13T09:49:42;1.63;;;1.20;;
8526;SDS011;4301;48.362;8.478;2022-09-13T09:52:42;1.63;;;1.40;;
8526;SDS011;4301;48.362;8.478;2022-09-13T09:55:20;1.77;;;1.30;;
8526;SDS011;4301;48.362;8.478;2022-09-13T09:57:54;2.75;;;1.10;;
8526;SDS011;4301;48.362;8.478;2022-09-13T10:00:25;3.10;;;1.40;;
8526;SDS011;4301;48.362;8.478;2022-09-13T10:02:56;1.10;;;1.10;;
8526;SDS011;4301;48.362;8.478;2022-09-13T10:05:25;2.38;;;1.30;;
8526;SDS011;4301;48.362;8.478;2022-09-13T10:07:55;2.33;;;1.25;;
8526;SDS011;4301;48.362;8.478;2022-09-13T10:10:25;4.90;;;1.30;;
8526;SDS011;4301;48.362;8.478;2022-09-13T10:13:00;5.20;;;1.20;;
8526;SDS011;4301;48.362;8.478;2022-09-13T10:15:28;2.15;;;1.20;;
8526;SDS011;4301;48.362;8.478;2022-09-13T10:18:04;1.45;;;1.40;;
8526;SDS011;4301;48.362;8.478;2022-09-13T10:20:39;6.22;;;1.30;;
8526;SDS011;4301;48.362;8.478;2022-09-13T10:26:03;1.50;;;1.40;;
8526;SDS011;4301;48.362;8.478;2022-09-13T10:28:35;4.78;;;1.23;;
8526;SDS011;4301;48.362;8.478;2022-09-13T10:31:08;2.80;;;1.27;;
8526;SDS011;4301;48.362;8.478;2022-09-13T10:33:40;3.13;;;1.30;;
8526;SDS011;4301;48.362;8.478;2022-09-13T10:36:11;1.48;;;1.25;;
8526;SDS011;4301;48.362;8.478;2022-09-13T10:38:41;2.28;;;1.10;;
8526;SDS011;4301;48.362;8.478;2022-09-13T10:41:20;0.93;;;0.93;;
8526;SDS011;4301;48.362;8.478;2022-09-13T10:43:50;5.88;;;1.10;;
8526;SDS011;4301;48.362;8.478;2022-09-13T10:46:22;1.98;;;1.08;;
8526;SDS011;4301;48.362;8.478;2022-09-13T10:48:51;1.10;;;1.10;;
8526;SDS011;4301;48.362;8.478;2022-09-13T10:51:33;1.30;;;1.20;;
8526;SDS011;4301;48.362;8.478;2022-09-13T10:56:45;1.63;;;1.02;;
8526;SDS011;4301;48.362;8.478;2022-09-13T10:59:24;1.10;;;1.10;;
8526;SDS011;4301;48.362;8.478;2022-09-13T11:02:00;3.83;;;1.00;;
8526;SDS011;4301;48.362;8.478;2022-09-13T11:04:55;1.23;;;1.13;;
8526;SDS011;4301;48.362;8.478;2022-09-13T11:07:48;1.13;;;1.02;;
8526;SDS011;4301;48.362;8.478;2022-09-13T11:10:41;1.08;;;1.08;;
8526;SDS011;4301;48.362;8.478;2022-09-13T11:13:18;1.00;;;1.00;;
8526;SDS011;4301;48.362;8.478;2022-09-13T11:15:54;1.08;;;1.08;;
8526;SDS011;4301;48.362;8.478;2022-09-13T11:21:31;1.55;;;0.93;;
8526;SDS011;4301;48.362;8.478;2022-09-13T11:24:11;1.25;;;1.15;;
8526;SDS011;4301;48.362;8.478;2022-09-13T11:26:54;2.65;;;1.20;;
8526;SDS011;4301;48.362;8.478;2022-09-13T11:29:38;1.00;;;1.00;;
8526;SDS011;4301;48.362;8.478;2022-09-13T11:32:44;1.20;;;1.10;;
8526;SDS011;4301;48.362;8.478;2022-09-13T11:35:41;1.17;;;1.10;;
8526;SDS011;4301;48.362;8.478;2022-09-13T11:38:29;1.38;;;1.20;;
8526;SDS011;4301;48.362;8.478;2022-09-13T11:41:08;1.10;;;1.10;;
8526;SDS011;4301;48.362;8.478;2022-09-13T11:43:47;0.98;;;0.98;;
8526;SDS011;4301;48.362;8.478;2022-09-13T11:46:24;1.38;;;1.30;;
8526;SDS011;4301;48.362;8.478;2022-09-13T11:52:01;1.63;;;1.17;;
8526;SDS011;4301;48.362;8.478;2022-09-13T11:54:44;2.78;;;1.00;;
8526;SDS011;4301;48.362;8.478;2022-09-13T11:57:34;1.50;;;0.90;;
8526;SDS011;4301;48.362;8.478;2022-09-13T12:00:06;1.60;;;1.10;;
8526;SDS011;4301;48.362;8.478;2022-09-13T12:02:46;1.15;;;1.13;;
8526;SDS011;4301;48.362;8.478;2022-09-13T12:05:23;1.00;;;1.00;;
8526;SDS011;4301;48.362;8.478;2022-09-13T12:07:54;0.95;;;0.95;;
8526;SDS011;4301;48.362;8.478;2022-09-13T12:10:26;1.00;;;1.00;;
8526;SDS011;4301;48.362;8.478;2022-09-13T12:12:58;1.52;;;1.15;;
8526;SDS011;4301;48.362;8.478;2022-09-13T12:15:31;0.90;;;0.90;;
8526;SDS011;4301;48.362;8.478;2022-09-13T12:18:04;2.33;;;1.20;;
8526;SDS011;4301;48.362;8.478;2022-09-13T12:20:37;1.75;;;1.08;;
8526;SDS011;4301;48.362;8.478;2022-09-13T12:23:10;1.17;;;1.08;;
8526;SDS011;4301;48.362;8.478;2022-09-13T12:25:42;1.25;;;1.25;;
8526;SDS011;4301;48.362;8.478;2022-09-13T12:28:17;3.78;;;1.27;;
8526;SDS011;4301;48.362;8.478;2022-09-13T12:30:51;2.42;;;1.20;;
8526;SDS011;4301;48.362;8.478;2022-09-13T12:33:22;3.28;;;1.15;;
8526;SDS011;4301;48.362;8.478;2022-09-13T12:39:00;1.20;;;1.10;;
8526;SDS011;4301;48.362;8.478;2022-09-13T12:41:51;1.63;;;1.50;;
8526;SDS011;4301;48.362;8.478;2022-09-13T12:44:49;1.98;;;1.23;;
8526;SDS011;4301;48.362;8.478;2022-09-13T12:47:39;1.17;;;1.05;;
8526;SDS011;4301;48.362;8.478;2022-09-13T12:53:23;1.20;;;1.10;;
8526;SDS011;4301;48.362;8.478;2022-09-13T12:56:09;2.03;;;1.05;;
8526;SDS011;4301;48.362;8.478;2022-09-13T12:59:31;1.58;;;1.17;;
8526;SDS011;4301;48.362;8.478;2022-09-13T13:04:56;1.10;;;1.05;;
8526;SDS011;4301;48.362;8.478;2022-09-13T13:07:26;3.50;;;1.10;;
8526;SDS011;4301;48.362;8.478;2022-09-13T13:09:56;1.00;;;1.00;;
8526;SDS011;4301;48.362;8.478;2022-09-13T13:12:25;3.22;;;1.20;;
8526;SDS011;4301;48.362;8.478;2022-09-13T13:14:57;1.83;;;1.08;;
8526;SDS011;4301;48.362;8.478;2022-09-13T13:17:35;1.00;;;1.00;;
8526;SDS011;4301;48.362;8.478;2022-09-13T13:23:25;1.50;;;1.10;;
8526;SDS011;4301;48.362;8.478;2022-09-13T13:26:03;2.78;;;1.10;;
8526;SDS011;4301;48.362;8.478;2022-09-13T13:28:55;1.00;;;1.00;;
8526;SDS011;4301;48.362;8.478;2022-09-13T13:31:43;3.03;;;1.10;;
8526;SDS011;4301;48.362;8.478;2022-09-13T13:34:44;3.05;;;1.00;;
8526;SDS011;4301;48.362;8.478;2022-09-13T13:37:32;1.05;;;1.00;;
8526;SDS011;4301;48.362;8.478;2022-09-13T13:40:21;1.17;;;1.08;;
8526;SDS011;4301;48.362;8.478;2022-09-13T13:43:02;1.08;;;1.00;;
8526;SDS011;4301;48.362;8.478;2022-09-13T13:45:54;1.27;;;1.10;;
8526;SDS011;4301;48.362;8.478;2022-09-13T13:51:23;1.63;;;1.10;;
8526;SDS011;4301;48.362;8.478;2022-09-13T13:53:53;1.13;;;1.13;;
8526;SDS011;4301;48.362;8.478;2022-09-13T13:56:31;1.00;;;1.00;;
8526;SDS011;4301;48.362;8.478;2022-09-13T13:59:15;1.00;;;1.00;;
8526;SDS011;4301;48.362;8.478;2022-09-13T14:01:50;1.65;;;0.90;;
8526;SDS011;4301;48.362;8.478;2022-09-13T14:10:29;1.30;;;0.85;;
8526;SDS011;4301;48.362;8.478;2022-09-13T14:13:18;1.33;;;1.10;;
8526;SDS011;4301;48.362;8.478;2022-09-13T14:15:57;2.85;;;1.10;;
8526;SDS011;4301;48.362;8.478;2022-09-13T14:18:50;0.95;;;0.90;;
8526;SDS011;4301;48.362;8.478;2022-09-13T14:21:29;1.10;;;1.00;;
8526;SDS011;4301;48.362;8.478;2022-09-13T14:24:14;1.00;;;1.00;;
8526;SDS011;4301;48.362;8.478;2022-09-13T14:26:44;1.75;;;1.00;;
8526;SDS011;4301;48.362;8.478;2022-09-13T14:29:14;1.83;;;0.93;;
8526;SDS011;4301;48.362;8.478;2022-09-13T14:31:44;1.80;;;1.00;;
8526;SDS011;4301;48.362;8.478;2022-09-13T14:34:19;2.05;;;1.02;;
8526;SDS011;4301;48.362;8.478;2022-09-13T14:36:54;2.45;;;1.00;;
8526;SDS011;4301;48.362;8.478;2022-09-13T14:39:22;1.25;;;1.00;;
8526;SDS011;4301;48.362;8.478;2022-09-13T14:41:56;1.23;;;0.90;;
8526;SDS011;4301;48.362;8.478;2022-09-13T14:44:25;1.65;;;1.00;;
8526;SDS011;4301;48.362;8.478;2022-09-13T14:46:56;5.40;;;1.05;;
8526;SDS011;4301;48.362;8.478;2022-09-13T14:49:28;3.92;;;1.00;;
8526;SDS011;4301;48.362;8.478;2022-09-13T14:52:03;2.53;;;1.00;;
8526;SDS011;4301;48.362;8.478;2022-09-13T14:54:35;2.75;;;1.00;;
8526;SDS011;4301;48.362;8.478;2022-09-13T14:57:05;2.70;;;0.90;;
8526;SDS011;4301;48.362;8.478;2022-09-13T14:59:36;1.95;;;0.90;;
8526;SDS011;4301;48.362;8.478;2022-09-13T15:02:15;4.22;;;1.23;;
8526;SDS011;4301;48.362;8.478;2022-09-13T15:04:46;1.58;;;1.00;;
8526;SDS011;4301;48.362;8.478;2022-09-13T15:07:22;1.00;;;1.00;;
8526;SDS011;4301;48.362;8.478;2022-09-13T15:09:55;1.40;;;1.10;;
8526;SDS011;4301;48.362;8.478;2022-09-13T15:12:25;2.30;;;1.00;;
8526;SDS011;4301;48.362;8.478;2022-09-13T15:15:18;0.95;;;0.95;;
8526;SDS011;4301;48.362;8.478;2022-09-13T15:17:52;2.35;;;1.30;;
8526;SDS011;4301;48.362;8.478;2022-09-13T15:20:20;1.25;;;1.00;;
8526;SDS011;4301;48.362;8.478;2022-09-13T15:22:49;1.00;;;1.00;;
8526;SDS011;4301;48.362;8.478;2022-09-13T15:25:19;1.20;;;1.20;;
8526;SDS011;4301;48.362;8.478;2022-09-13T15:27:49;1.08;;;1.02;;
8526;SDS011;4301;48.362;8.478;2022-09-13T15:30:21;1.08;;;1.00;;
8526;SDS011;4301;48.362;8.478;2022-09-13T15:33:02;1.40;;;0.98;;
8526;SDS011;4301;48.362;8.478;2022-09-13T15:35:42;0.93;;;0.90;;
8526;SDS011;4301;48.362;8.478;2022-09-13T15:38:16;0.90;;;0.90;;
8526;SDS011;4301;48.362;8.478;2022-09-13T15:40:47;1.05;;;0.95;;
8526;SDS011;4301;48.362;8.478;2022-09-13T15:43:24;1.23;;;1.10;;
8526;SDS011;4301;48.362;8.478;2022-09-13T15:45:51;3.30;;;1.10;;
8526;SDS011;4301;48.362;8.478;2022-09-13T15:48:20;3.83;;;1.10;;
8526;SDS011;4301;48.362;8.478;2022-09-13T15:51:02;1.15;;;1.02;;
8526;SDS011;4301;48.362;8.478;2022-09-13T15:53:34;5.15;;;1.25;;
8526;SDS011;4301;48.362;8.478;2022-09-13T15:56:02;1.00;;;1.00;;
8526;SDS011;4301;48.362;8.478;2022-09-13T15:58:30;2.28;;;1.00;;
8526;SDS011;4301;48.362;8.478;2022-09-13T16:00:58;3.33;;;1.02;;
8526;SDS011;4301;48.362;8.478;2022-09-13T16:03:25;2.97;;;1.25;;
8526;SDS011;4301;48.362;8.478;2022-09-13T16:05:52;1.05;;;1.05;;
8526;SDS011;4301;48.362;8.478;2022-09-13T16:08:19;2.70;;;1.00;;
8526;SDS011;4301;48.362;8.478;2022-09-13T16:10:48;3.50;;;1.23;;
8526;SDS011;4301;48.362;8.478;2022-09-13T16:13:15;2.92;;;1.10;;
8526;SDS011;4301;48.362;8.478;2022-09-13T16:15:42;2.03;;;0.90;;
8526;SDS011;4301;48.362;8.478;2022-09-13T16:18:09;3.95;;;0.98;;
8526;SDS011;4301;48.362;8.478;2022-09-13T16:20:37;1.85;;;1.10;;
8526;SDS011;4301;48.362;8.478;2022-09-13T16:23:04;2.17;;;1.13;;
8526;SDS011;4301;48.362;8.478;2022-09-13T16:25:31;1.48;;;1.13;;
8526;SDS011;4301;48.362;8.478;2022-09-13T16:28:00;2.22;;;1.33;;
8526;SDS011;4301;48.362;8.478;2022-09-13T16:30:28;1.50;;;1.00;;
8526;SDS011;4301;48.362;8.478;2022-09-13T16:32:57;4.25;;;1.17;;
8526;SDS011;4301;48.362;8.478;2022-09-13T16:35:25;2.47;;;1.13;;
8526;SDS011;4301;48.362;8.478;2022-09-13T16:37:55;1.38;;;1.27;;
8526;SDS011;4301;48.362;8.478;2022-09-13T16:40:22;1.63;;;1.27;;
8526;SDS011;4301;48.362;8.478;2022-09-13T16:42:49;3.63;;;1.20;;
8526;SDS011;4301;48.362;8.478;2022-09-13T16:45:19;3.58;;;1.20;;